createdAt,value
2023-04-15T00:01:27.470Z,5.63
2023-04-15T00:04:01.228Z,6.03
2023-04-15T00:06:33.667Z,3.80
2023-04-15T00:09:02.887Z,4.40
2023-04-15T00:11:31.337Z,6.77
2023-04-15T00:13:59.609Z,6.53
2023-04-15T00:16:28.755Z,4.83
2023-04-15T00:18:57.124Z,4.80
2023-04-15T00:21:35.713Z,3.83
2023-04-15T00:24:03.952Z,5.47
2023-04-15T00:26:37.858Z,5.30
2023-04-15T00:29:10.238Z,4.90
2023-04-15T00:31:38.807Z,4.80
2023-04-15T00:34:12.633Z,5.30
2023-04-15T00:36:47.927Z,5.93
2023-04-15T00:39:16.758Z,7.03
2023-04-15T00:41:49.803Z,10.83
2023-04-15T00:44:20.821Z,7.80
2023-04-15T00:46:50.751Z,6.60
2023-04-15T00:49:19.388Z,5.83
2023-04-15T00:51:49.479Z,3.77
2023-04-15T00:54:20.921Z,9.83
2023-04-15T00:56:50.239Z,4.13
2023-04-15T00:59:20.078Z,5.53
2023-04-15T01:01:49.987Z,4.47
2023-04-15T01:04:21.389Z,5.80
2023-04-15T01:06:51.744Z,6.20
2023-04-15T01:09:20.838Z,5.83
2023-04-15T01:11:50.721Z,5.07
2023-04-15T01:14:19.075Z,4.33
2023-04-15T01:16:47.730Z,3.60
2023-04-15T01:19:18.922Z,6.33
2023-04-15T01:21:48.405Z,10.10
2023-04-15T01:24:21.256Z,6.37
2023-04-15T01:26:51.303Z,5.43
2023-04-15T01:29:21.042Z,5.07
2023-04-15T01:31:54.166Z,9.73
2023-04-15T01:34:22.761Z,4.87
2023-04-15T01:36:51.499Z,5.27
2023-04-15T01:39:25.459Z,6.77
2023-04-15T01:41:59.427Z,6.07
2023-04-15T01:44:29.633Z,6.07
2023-04-15T01:47:01.011Z,7.00
2023-04-15T01:49:33.285Z,10.60
2023-04-15T01:52:02.473Z,9.97
2023-04-15T01:54:30.846Z,6.47
2023-04-15T01:57:07.073Z,8.23
2023-04-15T01:59:35.531Z,5.90
2023-04-15T02:02:04.956Z,7.90
2023-04-15T02:04:34.775Z,5.90
2023-04-15T02:07:11.654Z,6.00
2023-04-15T02:09:39.868Z,6.67
2023-04-15T02:12:11.954Z,5.60
2023-04-15T02:14:40.002Z,9.53
2023-04-15T02:17:11.502Z,6.13
2023-04-15T02:19:39.709Z,9.80
2023-04-15T02:22:11.858Z,6.10
2023-04-15T02:24:42.652Z,6.13
2023-04-15T02:27:12.816Z,6.87
2023-04-15T02:29:43.370Z,5.40
2023-04-15T02:32:13.011Z,5.60
2023-04-15T02:34:43.253Z,6.13
2023-04-15T02:37:12.865Z,4.90
2023-04-15T02:39:44.323Z,7.70
2023-04-15T02:42:17.053Z,10.50
2023-04-15T02:44:51.123Z,6.80
2023-04-15T02:47:25.891Z,5.73
2023-04-15T02:49:54.172Z,5.50
2023-04-15T02:52:23.156Z,7.23
2023-04-15T02:55:00.602Z,4.90
2023-04-15T02:57:31.344Z,6.87
2023-04-15T03:00:02.662Z,7.77
2023-04-15T03:02:35.660Z,11.00
2023-04-15T03:05:08.730Z,6.77
2023-04-15T03:07:36.694Z,6.37
2023-04-15T03:10:13.322Z,7.50
2023-04-15T03:12:46.349Z,3.50
2023-04-15T03:15:16.967Z,4.97
2023-04-15T03:17:51.485Z,4.40
2023-04-15T03:20:20.045Z,5.23
2023-04-15T03:22:48.089Z,10.30
2023-04-15T03:25:27.564Z,3.90
2023-04-15T03:27:57.257Z,8.73
2023-04-15T03:30:25.635Z,5.80
2023-04-15T03:32:53.890Z,5.90
2023-04-15T03:35:22.277Z,6.70
2023-04-15T03:37:54.864Z,5.83
2023-04-15T03:40:25.009Z,9.80
2023-04-15T03:42:54.701Z,6.67
2023-04-15T03:45:29.096Z,6.00
2023-04-15T03:48:03.719Z,4.73
2023-04-15T03:50:47.910Z,7.30
2023-04-15T03:53:18.520Z,5.13
2023-04-15T03:55:47.295Z,8.00
2023-04-15T03:58:16.416Z,8.70
2023-04-15T04:00:48.046Z,4.63
2023-04-15T04:03:16.660Z,7.60
2023-04-15T04:05:45.205Z,4.30
2023-04-15T04:08:18.143Z,4.07
2023-04-15T04:10:47.139Z,7.43
2023-04-15T04:13:18.654Z,4.27
2023-04-15T04:15:50.312Z,5.47
2023-04-15T04:18:20.144Z,5.57
2023-04-15T04:20:48.247Z,5.60
2023-04-15T04:23:18.295Z,12.83
2023-04-15T04:25:46.752Z,5.43
2023-04-15T04:28:19.539Z,5.30
2023-04-15T04:30:59.181Z,4.30
2023-04-15T04:33:30.358Z,6.10
2023-04-15T04:35:58.466Z,5.60
2023-04-15T04:38:28.196Z,5.77
2023-04-15T04:40:58.643Z,5.87
2023-04-15T04:43:26.798Z,6.17
2023-04-15T04:45:59.242Z,5.17
2023-04-15T04:48:27.141Z,6.53
2023-04-15T04:50:57.092Z,4.27
2023-04-15T04:53:28.030Z,5.50
2023-04-15T04:55:55.909Z,5.07
2023-04-15T04:58:23.987Z,5.40
2023-04-15T05:00:54.160Z,6.20
2023-04-15T05:03:25.931Z,11.13
2023-04-15T05:05:55.544Z,10.27
2023-04-15T05:08:26.463Z,6.30
2023-04-15T05:11:02.149Z,3.93
2023-04-15T05:13:30.259Z,4.93
2023-04-15T05:15:59.332Z,4.47
2023-04-15T05:18:29.167Z,5.00
2023-04-15T05:20:58.711Z,5.07
2023-04-15T05:23:26.929Z,4.13
2023-04-15T05:25:58.257Z,5.90
2023-04-15T05:28:26.716Z,5.70
2023-04-15T05:30:57.604Z,4.53
2023-04-15T05:33:27.566Z,6.50
2023-04-15T05:35:59.322Z,6.33
2023-04-15T05:38:37.559Z,4.53
2023-04-15T05:41:06.058Z,5.37
2023-04-15T05:43:34.643Z,5.47
2023-04-15T05:46:02.910Z,6.83
2023-04-15T05:48:30.964Z,7.17
2023-04-15T05:51:03.048Z,5.83
2023-04-15T05:53:32.162Z,8.03
2023-04-15T05:56:03.036Z,5.40
2023-04-15T05:58:33.467Z,6.20
2023-04-15T06:01:03.782Z,8.80
2023-04-15T06:03:31.991Z,6.73
2023-04-15T06:06:03.955Z,7.60
2023-04-15T06:08:34.116Z,5.57
2023-04-15T06:11:08.163Z,6.37
2023-04-15T06:13:36.594Z,7.07
2023-04-15T06:16:09.133Z,7.70
2023-04-15T06:18:40.641Z,5.77
2023-04-15T06:21:13.646Z,6.80
2023-04-15T06:23:44.193Z,10.00
2023-04-15T06:26:14.366Z,8.63
2023-04-15T06:28:43.117Z,6.83
2023-04-15T06:31:11.448Z,8.93
2023-04-15T06:33:39.846Z,10.97
2023-04-15T06:36:12.994Z,6.10
2023-04-15T06:38:41.385Z,6.70
2023-04-15T06:41:09.481Z,7.90
2023-04-15T06:43:40.344Z,8.13
2023-04-15T06:46:08.206Z,4.83
2023-04-15T06:48:36.017Z,7.47
2023-04-15T06:51:06.994Z,8.17
2023-04-15T06:53:41.188Z,7.83
2023-04-15T06:56:10.005Z,6.80
2023-04-15T06:58:38.050Z,12.20
2023-04-15T07:01:10.267Z,6.40
2023-04-15T07:03:38.248Z,7.43
2023-04-15T07:06:07.238Z,5.87
2023-04-15T07:08:36.794Z,7.90
2023-04-15T07:11:10.027Z,7.60
2023-04-15T07:13:38.167Z,6.43
2023-04-15T07:16:07.506Z,7.87
2023-04-15T07:18:37.311Z,6.80
2023-04-15T07:21:07.068Z,8.70
2023-04-15T07:23:36.518Z,5.53
2023-04-15T07:26:05.017Z,11.93
2023-04-15T07:28:33.330Z,10.53
2023-04-15T07:31:01.828Z,7.83
2023-04-15T07:33:33.358Z,8.67
2023-04-15T07:36:04.106Z,8.00
2023-04-15T07:38:36.987Z,7.10
2023-04-15T07:41:06.585Z,7.73
2023-04-15T07:43:36.246Z,7.30
2023-04-15T07:46:11.626Z,6.17
2023-04-15T07:48:44.374Z,8.13
2023-04-15T07:51:16.436Z,3.80
2023-04-15T07:53:50.620Z,4.93
2023-04-15T07:56:19.519Z,7.10
2023-04-15T07:58:54.294Z,5.83
2023-04-15T08:01:24.464Z,4.87
2023-04-15T08:03:52.748Z,5.40
2023-04-15T08:06:23.505Z,4.47
2023-04-15T08:08:54.671Z,5.20
2023-04-15T08:11:23.551Z,3.57
2023-04-15T08:13:55.723Z,4.33
2023-04-15T08:16:25.270Z,4.40
2023-04-15T08:18:55.263Z,3.83
2023-04-15T08:21:25.234Z,7.07
2023-04-15T08:23:55.559Z,2.80
2023-04-15T08:26:24.141Z,8.40
2023-04-15T08:28:52.692Z,6.20
2023-04-15T08:31:22.781Z,5.50
2023-04-15T08:33:52.564Z,5.20
2023-04-15T08:36:23.665Z,4.70
2023-04-15T08:38:54.308Z,8.37
2023-04-15T08:41:30.888Z,4.40
2023-04-15T08:44:02.008Z,3.70
2023-04-15T08:46:37.934Z,4.60
2023-04-15T08:49:07.508Z,3.27
2023-04-15T08:51:36.556Z,6.20
2023-04-15T08:54:08.866Z,3.50
2023-04-15T08:56:44.384Z,4.10
2023-04-15T08:59:12.931Z,5.33
2023-04-15T09:01:42.206Z,4.00
2023-04-15T09:04:15.451Z,6.33
2023-04-15T09:06:44.108Z,5.20
2023-04-15T09:09:14.661Z,8.03
2023-04-15T09:11:45.780Z,6.73
2023-04-15T09:14:23.288Z,4.23
2023-04-15T09:16:58.701Z,4.87
2023-04-15T09:19:29.714Z,4.27
2023-04-15T09:21:59.566Z,5.60
2023-04-15T09:24:36.783Z,4.80
2023-04-15T09:27:07.211Z,6.10
2023-04-15T09:29:35.774Z,5.30
2023-04-15T09:32:18.069Z,6.50
2023-04-15T09:34:46.136Z,4.57
2023-04-15T09:37:29.076Z,7.13
2023-04-15T09:40:01.247Z,5.40
2023-04-15T09:42:30.908Z,6.13
2023-04-15T09:45:12.707Z,3.90
2023-04-15T09:47:42.741Z,4.90
2023-04-15T09:50:15.685Z,5.80
2023-04-15T09:52:44.565Z,5.87
2023-04-15T09:55:13.107Z,7.03
2023-04-15T09:57:44.641Z,5.30
2023-04-15T10:00:14.021Z,5.40
2023-04-15T10:02:43.300Z,3.40
2023-04-15T10:05:17.144Z,5.70
2023-04-15T10:07:46.141Z,5.00
2023-04-15T10:10:14.303Z,5.77
2023-04-15T10:12:46.478Z,5.93
2023-04-15T10:15:18.541Z,4.50
2023-04-15T10:17:50.249Z,7.60
2023-04-15T10:20:19.393Z,6.97
2023-04-15T10:22:49.826Z,4.27
2023-04-15T10:25:18.744Z,7.10
2023-04-15T10:27:49.000Z,6.17
2023-04-15T10:30:17.554Z,6.33
2023-04-15T10:32:46.436Z,3.80
2023-04-15T10:35:17.815Z,5.57
2023-04-15T10:37:46.324Z,2.63
2023-04-15T10:40:31.643Z,5.10
2023-04-15T10:43:03.154Z,5.67
2023-04-15T10:45:34.905Z,6.17
2023-04-15T10:48:06.852Z,4.47
2023-04-15T10:50:36.656Z,7.13
2023-04-15T10:53:09.180Z,3.87
2023-04-15T10:55:39.467Z,4.80
2023-04-15T10:58:15.110Z,6.60
2023-04-15T11:00:53.577Z,3.80
2023-04-15T11:03:37.848Z,2.70
2023-04-15T11:06:08.620Z,5.30
2023-04-15T11:08:59.688Z,6.07
2023-04-15T11:12:01.267Z,4.50
2023-04-15T11:14:30.938Z,5.03
2023-04-15T11:17:01.066Z,5.37
2023-04-15T11:19:39.399Z,5.40
2023-04-15T11:22:10.953Z,5.17
2023-04-15T11:24:49.198Z,3.33
2023-04-15T11:27:25.303Z,4.67
2023-04-15T11:29:59.103Z,5.50
2023-04-15T11:32:29.820Z,5.90
2023-04-15T11:34:58.597Z,5.70
2023-04-15T11:37:33.826Z,6.37
2023-04-15T11:40:04.534Z,6.80
2023-04-15T11:42:46.519Z,5.93
2023-04-15T11:45:18.722Z,7.43
2023-04-15T11:47:46.713Z,4.50
2023-04-15T11:50:19.580Z,7.50
2023-04-15T11:53:08.335Z,7.50
2023-04-15T11:55:44.695Z,9.90
2023-04-15T11:58:16.668Z,9.73
2023-04-15T12:00:49.935Z,6.93
2023-04-15T12:03:24.636Z,5.97
2023-04-15T12:06:21.849Z,8.50
2023-04-15T12:09:05.506Z,9.30
2023-04-15T12:11:43.128Z,7.73
2023-04-15T12:14:24.032Z,8.70
2023-04-15T12:17:05.404Z,4.80
2023-04-15T12:19:38.288Z,6.93
2023-04-15T12:22:07.968Z,8.43
2023-04-15T12:24:41.278Z,7.70
2023-04-15T12:27:10.389Z,6.80
2023-04-15T12:29:40.146Z,6.60
2023-04-15T12:32:15.627Z,9.23
2023-04-15T12:34:47.186Z,11.47
2023-04-15T12:37:15.077Z,8.27
2023-04-15T12:39:51.857Z,5.60
2023-04-15T12:42:23.088Z,8.90
2023-04-15T12:45:00.045Z,14.20
2023-04-15T12:47:34.541Z,7.63
2023-04-15T12:50:04.189Z,9.60
2023-04-15T12:52:34.619Z,5.83
2023-04-15T12:55:02.852Z,8.67
2023-04-15T12:57:31.098Z,8.00
2023-04-15T12:59:59.357Z,7.70
2023-04-15T13:02:31.310Z,8.87
2023-04-15T13:05:04.693Z,4.97
2023-04-15T13:07:35.531Z,7.03
2023-04-15T13:10:03.477Z,6.27
2023-04-15T13:12:31.419Z,4.40
2023-04-15T13:14:59.587Z,9.10
2023-04-15T13:17:40.292Z,4.30
2023-04-15T13:20:09.139Z,4.60
2023-04-15T13:22:37.617Z,4.97
2023-04-15T13:25:06.313Z,4.93
2023-04-15T13:27:35.998Z,7.10
2023-04-15T13:30:09.490Z,6.77
2023-04-15T13:32:43.102Z,3.80
2023-04-15T13:35:11.280Z,4.63
2023-04-15T13:37:42.234Z,2.93
2023-04-15T13:40:11.161Z,7.60
2023-04-15T13:42:55.572Z,4.03
2023-04-15T13:45:23.853Z,3.50
2023-04-15T13:47:53.584Z,5.90
2023-04-15T13:50:25.709Z,3.93
2023-04-15T13:52:53.716Z,4.57
2023-04-15T13:55:35.419Z,3.10
2023-04-15T13:58:06.477Z,3.13
2023-04-15T14:00:36.474Z,4.17
2023-04-15T14:03:09.477Z,4.10
2023-04-15T14:05:42.567Z,5.73
2023-04-15T14:08:13.428Z,4.30
2023-04-15T14:10:44.400Z,5.43
2023-04-15T14:13:12.880Z,5.70
2023-04-15T14:15:43.479Z,6.23
2023-04-15T14:18:18.062Z,4.20
2023-04-15T14:20:45.828Z,5.30
2023-04-15T14:23:14.238Z,4.70
2023-04-15T14:25:44.144Z,3.80
2023-04-15T14:28:14.911Z,5.10
2023-04-15T14:30:43.193Z,5.03
2023-04-15T14:33:17.964Z,7.80
2023-04-15T14:35:48.619Z,5.70
2023-04-15T14:38:16.650Z,4.97
2023-04-15T14:40:45.235Z,5.67
2023-04-15T14:43:19.306Z,5.30
2023-04-15T14:45:49.837Z,5.50
2023-04-15T14:48:19.523Z,5.10
2023-04-15T14:50:51.919Z,4.90
2023-04-15T14:53:20.486Z,6.90
2023-04-15T14:55:53.571Z,5.27
2023-04-15T14:58:23.369Z,4.63
2023-04-15T15:00:52.136Z,6.53
2023-04-15T15:03:24.053Z,5.60
2023-04-15T15:05:58.962Z,3.73
2023-04-15T15:08:30.415Z,4.43
2023-04-15T15:11:05.736Z,5.23
2023-04-15T15:13:35.278Z,5.07
2023-04-15T15:16:04.025Z,4.30
2023-04-15T15:18:34.228Z,6.83
2023-04-15T15:21:02.619Z,6.40
2023-04-15T15:23:30.733Z,5.90
2023-04-15T15:26:03.717Z,5.80
2023-04-15T15:28:43.122Z,4.80
2023-04-15T15:34:01.293Z,3.30
2023-04-15T15:36:32.459Z,3.03
2023-04-15T15:39:00.464Z,3.10
2023-04-15T15:41:28.999Z,2.97
2023-04-15T15:43:58.395Z,3.00
2023-04-15T15:46:28.953Z,3.40
2023-04-15T15:49:00.236Z,3.87
2023-04-15T15:51:29.034Z,5.50
2023-04-15T15:53:57.293Z,2.20
2023-04-15T15:56:32.087Z,4.50
2023-04-15T15:59:00.070Z,3.30
2023-04-15T16:01:31.854Z,4.30
2023-04-15T16:04:02.144Z,2.80
2023-04-15T16:06:35.403Z,2.93
2023-04-15T16:09:03.860Z,6.00
2023-04-15T16:11:34.189Z,3.67
2023-04-15T16:14:03.120Z,3.27
2023-04-15T16:16:31.375Z,3.27
2023-04-15T16:19:02.818Z,3.37
2023-04-15T16:21:34.696Z,3.33
2023-04-15T16:24:05.977Z,4.30
2023-04-15T16:26:34.506Z,4.00
2023-04-15T16:29:03.542Z,6.23
2023-04-15T16:31:32.231Z,3.80
2023-04-15T16:34:05.698Z,3.20
2023-04-15T16:36:40.755Z,3.13
2023-04-15T16:39:10.172Z,4.23
2023-04-15T16:41:49.166Z,3.27
2023-04-15T16:44:19.458Z,3.80
2023-04-15T16:46:47.549Z,3.20
2023-04-15T16:49:15.928Z,5.77
2023-04-15T16:51:48.584Z,5.90
2023-04-15T16:54:24.570Z,4.50
2023-04-15T16:56:52.578Z,3.20
2023-04-15T16:59:24.109Z,4.40
2023-04-15T17:01:52.440Z,2.40
2023-04-15T17:04:21.201Z,3.30
2023-04-15T17:06:57.532Z,3.07
2023-04-15T17:09:25.534Z,4.30
2023-04-15T17:11:53.791Z,2.67
2023-04-15T17:14:23.830Z,2.57
2023-04-15T17:16:55.793Z,4.27
2023-04-15T17:19:26.552Z,3.20
2023-04-15T17:22:01.432Z,2.33
2023-04-15T17:24:36.047Z,3.53
2023-04-15T17:27:12.301Z,3.87
2023-04-15T17:29:46.036Z,4.60
2023-04-15T17:32:14.965Z,4.67
2023-04-15T17:34:49.446Z,5.30
2023-04-15T17:37:21.408Z,5.43
2023-04-15T17:39:49.354Z,6.30
2023-04-15T17:42:17.809Z,4.20
2023-04-15T17:44:47.148Z,4.20
2023-04-15T17:47:15.433Z,4.53
2023-04-15T17:49:45.503Z,4.90
2023-04-15T17:52:15.132Z,4.20
2023-04-15T17:54:52.633Z,6.43
2023-04-15T17:57:21.977Z,4.40
2023-04-15T17:59:57.100Z,3.97
2023-04-15T18:02:28.194Z,4.77
2023-04-15T18:04:56.813Z,5.90
2023-04-15T18:07:25.046Z,5.40
2023-04-15T18:09:56.168Z,3.93
2023-04-15T18:12:28.266Z,7.20
2023-04-15T18:15:00.675Z,4.03
2023-04-15T18:17:36.220Z,4.80
2023-04-15T18:20:04.584Z,6.13
2023-04-15T18:22:32.706Z,5.80
2023-04-15T18:25:04.662Z,4.80
2023-04-15T18:27:38.575Z,6.30
2023-04-15T18:30:08.140Z,5.63
2023-04-15T18:32:36.365Z,7.50
2023-04-15T18:35:07.124Z,5.83
2023-04-15T18:37:38.461Z,8.60
2023-04-15T18:40:15.131Z,6.87
2023-04-15T18:42:45.207Z,6.13
2023-04-15T18:45:15.594Z,5.60
2023-04-15T18:47:44.075Z,9.77
2023-04-15T18:50:13.916Z,6.87
2023-04-15T18:52:45.144Z,6.40
2023-04-15T18:55:16.520Z,6.00
2023-04-15T18:57:48.106Z,5.47
2023-04-15T19:00:22.761Z,7.37
2023-04-15T19:02:51.204Z,7.30
2023-04-15T19:05:23.683Z,8.37
2023-04-15T19:07:54.094Z,10.93
2023-04-15T19:10:35.969Z,8.87
2023-04-15T19:13:04.662Z,7.80
2023-04-15T19:15:36.418Z,6.40
2023-04-15T19:18:13.676Z,8.93
2023-04-15T19:20:45.918Z,9.73
2023-04-15T19:23:13.965Z,11.80
2023-04-15T19:25:43.863Z,8.77
2023-04-15T19:28:14.985Z,7.37
2023-04-15T19:30:45.469Z,10.10
2023-04-15T19:33:16.591Z,8.90
2023-04-15T19:35:45.917Z,7.87
2023-04-15T19:38:15.579Z,10.80
2023-04-15T19:40:50.022Z,7.00
2023-04-15T19:43:19.563Z,7.17
2023-04-15T19:45:49.702Z,7.63
2023-04-15T19:48:18.204Z,8.73
2023-04-15T19:50:46.287Z,7.83
2023-04-15T19:53:17.106Z,7.23
2023-04-15T19:55:48.772Z,8.40
2023-04-15T19:58:18.841Z,7.93
2023-04-15T20:00:46.756Z,8.57
2023-04-15T20:03:17.945Z,7.50
2023-04-15T20:05:48.406Z,9.23
2023-04-15T20:08:17.785Z,10.80
2023-04-15T20:10:48.916Z,10.60
2023-04-15T20:13:18.929Z,9.37
2023-04-15T20:15:49.809Z,10.30
2023-04-15T20:18:20.986Z,10.37
2023-04-15T20:20:55.286Z,10.13
2023-04-15T20:23:30.163Z,10.13
2023-04-15T20:26:00.934Z,9.33
2023-04-15T20:28:33.364Z,12.73
2023-04-15T20:31:02.669Z,11.63
2023-04-15T20:33:34.167Z,12.47
2023-04-15T20:36:02.606Z,10.20
2023-04-15T20:38:35.694Z,7.70
2023-04-15T20:41:11.701Z,8.37
2023-04-15T20:43:41.795Z,12.97
2023-04-15T20:46:21.570Z,12.57
2023-04-15T20:48:50.140Z,9.00
2023-04-15T20:51:23.788Z,11.40
2023-04-15T20:53:52.104Z,14.30
2023-04-15T20:56:24.395Z,12.23
2023-04-15T20:58:59.246Z,11.20
2023-04-15T21:01:30.505Z,13.90
2023-04-15T21:03:58.773Z,11.70
2023-04-15T21:06:30.147Z,9.63
2023-04-15T21:08:59.263Z,13.07
2023-04-15T21:14:12.786Z,9.80
2023-04-15T21:16:49.120Z,13.40
2023-04-15T21:19:19.419Z,9.83
2023-04-15T21:21:53.030Z,12.60
2023-04-15T21:24:21.300Z,14.63
2023-04-15T21:26:50.571Z,12.37
2023-04-15T21:29:22.371Z,10.57
2023-04-15T21:31:50.535Z,13.40
2023-04-15T21:34:24.884Z,12.97
2023-04-15T21:36:55.846Z,13.13
2023-04-15T21:39:25.818Z,14.80
2023-04-15T21:41:53.736Z,12.80
2023-04-15T21:44:28.790Z,12.30
2023-04-15T21:47:05.826Z,14.33
2023-04-15T21:49:33.912Z,12.97
2023-04-15T21:52:04.638Z,12.27
2023-04-15T21:54:38.501Z,14.00
2023-04-15T21:57:12.559Z,12.40
2023-04-15T21:59:45.597Z,17.90
2023-04-15T22:02:21.413Z,12.67
2023-04-15T22:04:52.467Z,13.63
2023-04-15T22:07:20.820Z,16.70
2023-04-15T22:09:48.996Z,16.30
2023-04-15T22:12:20.075Z,17.90
2023-04-15T22:14:53.408Z,13.30
2023-04-15T22:17:21.929Z,15.43
2023-04-15T22:19:53.617Z,12.13
2023-04-15T22:22:21.998Z,14.33
2023-04-15T22:25:00.536Z,11.77
2023-04-15T22:27:31.274Z,11.27
2023-04-15T22:30:01.415Z,9.93
2023-04-15T22:32:32.220Z,15.33
2023-04-15T22:35:06.268Z,14.53
2023-04-15T22:37:34.363Z,15.40
2023-04-15T22:40:05.020Z,13.60
2023-04-15T22:42:33.371Z,15.07
2023-04-15T22:45:03.523Z,16.00
2023-04-15T22:47:31.904Z,10.77
2023-04-15T22:50:00.167Z,11.33
2023-04-15T22:52:31.450Z,12.90
2023-04-15T22:55:00.291Z,11.40
2023-04-15T22:57:29.662Z,12.47
2023-04-15T22:59:58.003Z,11.70
2023-04-15T23:02:29.216Z,16.17
2023-04-15T23:04:58.117Z,15.93
2023-04-15T23:07:37.472Z,14.73
2023-04-15T23:10:16.272Z,17.60
2023-04-15T23:12:49.164Z,15.77
2023-04-15T23:18:03.508Z,14.13
2023-04-15T23:20:34.550Z,17.57
2023-04-15T23:23:16.049Z,13.67
2023-04-15T23:25:49.395Z,20.03
2023-04-15T23:28:17.663Z,14.57
2023-04-15T23:30:45.486Z,16.67
2023-04-15T23:33:21.405Z,16.67
2023-04-15T23:35:50.660Z,18.77
2023-04-15T23:38:24.497Z,16.30
2023-04-15T23:40:58.418Z,16.87
2023-04-15T23:43:27.029Z,17.90
2023-04-15T23:45:55.430Z,18.77
2023-04-15T23:48:32.289Z,19.03
2023-04-15T23:51:02.207Z,14.00
2023-04-15T23:53:39.181Z,15.30
2023-04-15T23:56:07.730Z,18.13
2023-04-15T23:58:37.453Z,18.13
